createdAt,value
2019-02-26T00:02:21.578Z,102639.31
2019-02-26T00:04:49.151Z,102625.59
2019-02-26T00:07:16.240Z,102631.56
2019-02-26T00:09:39.784Z,102631.48
2019-02-26T00:12:04.553Z,102638.77
2019-02-26T00:14:30.313Z,102631.91
2019-02-26T00:16:54.952Z,102629.23
2019-02-26T00:19:19.465Z,102633.78
2019-02-26T00:21:45.669Z,102624.56
2019-02-26T00:24:12.339Z,102616.99
2019-02-26T00:26:38.451Z,102618.20
2019-02-26T00:29:04.613Z,102612.62
2019-02-26T00:31:30.491Z,102611.59
2019-02-26T00:33:55.002Z,102608.63
2019-02-26T00:36:19.799Z,102605.33
2019-02-26T00:38:44.476Z,102607.73
2019-02-26T00:41:08.917Z,102606.72
2019-02-26T00:43:34.661Z,102614.23
2019-02-26T00:46:00.796Z,102619.23
2019-02-26T00:48:25.646Z,102614.13
2019-02-26T00:50:52.200Z,102617.92
2019-02-26T00:53:19.113Z,102615.45
2019-02-26T00:55:43.142Z,102605.66
2019-02-26T00:58:09.036Z,102601.03
2019-02-26T01:00:35.492Z,102596.88
2019-02-26T01:03:01.446Z,102591.92
2019-02-26T01:05:26.227Z,102592.25
2019-02-26T01:07:52.570Z,102585.91
2019-02-26T01:10:19.312Z,102585.91
2019-02-26T01:12:43.370Z,102591.61
2019-02-26T01:15:11.681Z,102585.16
2019-02-26T01:17:38.373Z,102586.95
2019-02-26T01:20:05.743Z,102585.23
2019-02-26T01:22:33.063Z,102587.07
2019-02-26T01:25:01.625Z,102590.25
2019-02-26T01:27:32.904Z,102582.48
2019-02-26T01:29:58.232Z,102571.30
2019-02-26T01:32:24.935Z,102565.25
2019-02-26T01:34:49.577Z,102568.72
2019-02-26T01:37:17.192Z,102564.15
2019-02-26T01:39:42.970Z,102566.00
2019-02-26T01:42:08.090Z,102565.20
2019-02-26T01:44:35.493Z,102575.24
2019-02-26T01:47:04.255Z,102426.70
2019-02-26T01:49:28.987Z,102583.88
2019-02-26T01:51:53.983Z,102576.05
2019-02-26T01:54:18.584Z,102572.72
2019-02-26T01:56:43.244Z,102556.78
2019-02-26T01:59:07.878Z,102561.09
2019-02-26T02:01:32.422Z,102565.42
2019-02-26T02:03:56.851Z,102566.80
2019-02-26T02:06:21.368Z,102567.27
2019-02-26T02:08:48.110Z,102567.96
2019-02-26T02:11:16.130Z,102557.89
2019-02-26T02:13:41.382Z,102568.53
2019-02-26T02:16:08.888Z,102566.45
2019-02-26T02:18:33.084Z,102566.92
2019-02-26T02:20:57.598Z,102562.88
2019-02-26T02:23:23.634Z,102571.12
2019-02-26T02:25:48.381Z,102576.58
2019-02-26T02:28:19.220Z,102568.09
2019-02-26T02:30:42.145Z,102563.05
2019-02-26T02:33:06.839Z,102559.83
2019-02-26T02:35:32.915Z,102560.36
2019-02-26T02:38:00.095Z,102562.14
2019-02-26T02:40:24.244Z,102564.36
2019-02-26T02:42:50.302Z,102563.69
2019-02-26T02:45:20.159Z,102566.28
2019-02-26T02:48:14.009Z,102569.58
2019-02-26T02:50:12.628Z,102572.10
2019-02-26T02:52:38.839Z,102572.77
2019-02-26T02:55:04.564Z,102575.45
2019-02-26T02:57:31.951Z,102577.34
2019-02-26T03:00:03.005Z,102571.84
2019-02-26T03:02:27.702Z,102577.48
2019-02-26T03:04:52.297Z,102576.47
2019-02-26T03:07:20.809Z,102586.97
2019-02-26T03:09:47.544Z,102581.12
2019-02-26T03:12:12.160Z,102585.38
2019-02-26T03:14:39.170Z,102584.22
2019-02-26T03:17:02.836Z,102576.38
2019-02-26T03:19:29.506Z,102567.61
2019-02-26T03:21:55.011Z,102560.64
2019-02-26T03:24:19.515Z,102570.42
2019-02-26T03:26:43.933Z,102576.36
2019-02-26T03:29:08.374Z,102571.58
2019-02-26T03:31:35.091Z,102578.36
2019-02-26T03:34:04.097Z,102588.05
2019-02-26T03:36:25.173Z,102580.66
2019-02-26T03:38:51.037Z,102575.16
2019-02-26T03:41:16.605Z,102576.03
2019-02-26T03:43:41.933Z,102571.79
2019-02-26T03:46:06.375Z,102568.48
2019-02-26T03:48:30.801Z,102573.97
2019-02-26T03:50:55.286Z,102571.98
2019-02-26T03:53:19.708Z,102572.36
2019-02-26T03:55:44.277Z,102569.48
2019-02-26T03:58:08.684Z,102585.70
2019-02-26T04:00:34.812Z,102569.09
2019-02-26T04:02:59.388Z,102563.79
2019-02-26T04:05:23.894Z,102561.58
2019-02-26T04:07:51.607Z,102561.95
2019-02-26T04:10:14.863Z,102563.54
2019-02-26T04:12:42.075Z,102561.47
2019-02-26T04:15:08.503Z,102565.02
2019-02-26T04:17:33.676Z,102566.42
2019-02-26T04:19:59.052Z,102560.94
2019-02-26T04:22:32.132Z,102562.58
2019-02-26T04:25:03.863Z,102558.20
2019-02-26T04:27:36.309Z,102563.45
2019-02-26T04:30:39.255Z,102560.08
2019-02-26T04:33:16.070Z,102559.37
2019-02-26T04:35:44.891Z,102562.31
2019-02-26T04:38:29.081Z,102550.05
2019-02-26T04:41:00.230Z,102551.00
2019-02-26T04:43:31.342Z,102552.32
2019-02-26T04:46:08.511Z,102550.05
2019-02-26T04:48:35.862Z,102563.45
2019-02-26T04:51:00.290Z,102566.59
2019-02-26T04:53:25.982Z,102570.05
2019-02-26T04:55:51.209Z,102566.00
2019-02-26T04:58:18.408Z,102565.78
2019-02-26T05:00:41.832Z,102571.47
2019-02-26T05:03:10.544Z,102576.22
2019-02-26T05:05:36.576Z,102574.02
2019-02-26T05:07:58.695Z,102578.70
2019-02-26T05:10:26.059Z,102569.31
2019-02-26T05:12:49.539Z,102570.00
2019-02-26T05:15:17.212Z,102576.20
2019-02-26T05:17:40.166Z,102580.69
2019-02-26T05:20:09.358Z,102579.75
2019-02-26T05:22:33.350Z,102579.33
2019-02-26T05:24:58.159Z,102572.55
2019-02-26T05:27:24.823Z,102576.22
2019-02-26T05:29:49.741Z,102581.05
2019-02-26T05:32:14.839Z,102583.20
2019-02-26T05:34:39.923Z,102592.42
2019-02-26T05:37:07.864Z,102598.57
2019-02-26T05:39:31.528Z,102595.73
2019-02-26T05:41:58.860Z,102592.52
2019-02-26T05:44:22.094Z,102591.60
2019-02-26T05:46:47.394Z,102579.66
2019-02-26T05:49:14.072Z,102569.14
2019-02-26T05:51:38.776Z,102565.36
2019-02-26T05:54:07.789Z,102567.30
2019-02-26T05:56:29.400Z,102568.22
2019-02-26T05:58:53.848Z,102569.95
2019-02-26T06:01:19.235Z,102571.64
2019-02-26T06:03:46.753Z,102557.67
2019-02-26T06:06:10.663Z,102553.78
2019-02-26T06:08:36.318Z,102556.42
2019-02-26T06:11:01.205Z,102554.57
2019-02-26T06:13:25.637Z,102548.95
2019-02-26T06:15:51.402Z,102546.01
2019-02-26T06:18:16.178Z,102554.48
2019-02-26T06:20:40.609Z,102564.31
2019-02-26T06:23:05.022Z,102563.64
2019-02-26T06:25:29.475Z,102564.34
2019-02-26T06:27:53.963Z,102568.47
2019-02-26T06:30:19.170Z,102573.63
2019-02-26T06:32:44.757Z,102571.43
2019-02-26T06:35:13.777Z,102570.95
2019-02-26T06:37:40.295Z,102570.88
2019-02-26T06:40:07.490Z,102566.68
2019-02-26T06:42:33.713Z,102563.98
2019-02-26T06:44:58.138Z,102558.38
2019-02-26T06:47:24.922Z,102564.69
2019-02-26T06:49:50.307Z,102563.03
2019-02-26T06:52:16.261Z,102564.58
2019-02-26T06:54:40.881Z,102576.70
2019-02-26T06:57:05.306Z,102562.50
2019-02-26T06:59:34.238Z,102569.25
2019-02-26T07:01:57.711Z,102566.84
2019-02-26T07:04:22.144Z,102563.61
2019-02-26T07:06:46.635Z,102567.55
2019-02-26T07:09:13.305Z,102567.77
2019-02-26T07:11:37.911Z,102571.22
2019-02-26T07:14:03.597Z,102570.07
2019-02-26T07:16:28.456Z,102571.88
2019-02-26T07:18:52.879Z,102567.33
2019-02-26T07:21:17.296Z,102568.67
2019-02-26T07:23:41.725Z,102567.31
2019-02-26T07:26:06.140Z,102567.77
2019-02-26T07:28:30.553Z,102575.08
2019-02-26T07:30:54.981Z,102579.92
2019-02-26T07:33:19.384Z,102584.12
2019-02-26T07:35:43.899Z,102586.73
2019-02-26T07:38:09.155Z,102582.66
2019-02-26T07:40:35.376Z,102588.83
2019-02-26T07:42:59.715Z,102589.23
2019-02-26T07:45:24.899Z,102593.81
2019-02-26T07:47:51.423Z,102589.75
2019-02-26T07:50:17.396Z,102588.55
2019-02-26T07:52:41.936Z,102577.21
2019-02-26T07:55:11.768Z,102578.23
2019-02-26T07:57:34.770Z,102574.10
2019-02-26T07:59:59.192Z,102584.86
2019-02-26T08:02:25.602Z,102591.20
2019-02-26T08:04:49.756Z,102580.24
2019-02-26T08:07:14.194Z,102574.41
2019-02-26T08:09:38.628Z,102576.55
2019-02-26T08:12:04.333Z,102570.92
2019-02-26T08:14:29.260Z,102569.55
2019-02-26T08:16:56.065Z,102571.86
2019-02-26T08:19:19.824Z,102564.91
2019-02-26T08:21:45.568Z,102569.88
2019-02-26T08:24:12.381Z,102558.52
2019-02-26T08:26:38.622Z,102556.03
2019-02-26T08:29:05.698Z,102553.48
2019-02-26T08:31:30.117Z,102555.45
2019-02-26T08:33:54.547Z,102560.81
2019-02-26T08:36:19.011Z,102561.70
2019-02-26T08:38:43.442Z,102555.11
2019-02-26T08:41:07.941Z,102552.70
2019-02-26T08:43:32.387Z,102546.17
2019-02-26T08:45:56.882Z,102542.09
2019-02-26T08:48:22.363Z,102541.63
2019-02-26T08:50:47.527Z,102549.56
2019-02-26T08:53:11.982Z,102554.30
2019-02-26T08:55:36.403Z,102555.82
2019-02-26T08:58:00.854Z,102547.05
2019-02-26T09:00:25.421Z,102548.86
2019-02-26T09:02:53.806Z,102546.34
2019-02-26T09:05:16.133Z,102550.38
2019-02-26T09:07:42.697Z,102545.04
2019-02-26T09:10:12.127Z,102553.17
2019-02-26T09:12:36.071Z,102551.30
2019-02-26T09:15:00.492Z,102543.05
2019-02-26T09:17:26.809Z,102549.97
2019-02-26T09:19:54.664Z,102539.30
2019-02-26T09:22:19.378Z,102534.22
2019-02-26T09:24:43.318Z,102534.30
2019-02-26T09:27:07.741Z,102535.97
2019-02-26T09:29:34.319Z,102537.25
2019-02-26T09:31:59.277Z,102536.00
2019-02-26T09:34:26.170Z,102538.44
2019-02-26T09:36:52.809Z,102545.11
2019-02-26T09:39:16.006Z,102541.06
2019-02-26T09:41:42.602Z,102548.52
2019-02-26T09:44:07.226Z,102545.73
2019-02-26T09:46:35.808Z,102539.25
2019-02-26T09:49:00.921Z,102538.56
2019-02-26T09:51:25.156Z,102547.17
2019-02-26T09:53:52.018Z,102538.31
2019-02-26T09:56:15.795Z,102539.11
2019-02-26T09:58:42.881Z,102530.56
2019-02-26T10:01:08.567Z,102537.55
2019-02-26T10:03:36.678Z,102545.41
2019-02-26T10:05:59.821Z,102541.75
2019-02-26T10:08:25.351Z,102542.89
2019-02-26T10:10:55.025Z,102536.59
2019-02-26T10:13:21.081Z,102540.23
2019-02-26T10:15:45.714Z,102546.75
2019-02-26T10:18:10.152Z,102549.23
2019-02-26T10:20:34.606Z,102556.42
2019-02-26T10:23:02.834Z,102548.06
2019-02-26T10:25:26.393Z,102547.88
2019-02-26T10:27:51.436Z,102532.97
2019-02-26T10:30:19.973Z,102532.16
2019-02-26T10:32:46.856Z,102529.15
2019-02-26T10:35:18.447Z,102521.63
2019-02-26T10:37:47.399Z,102524.51
2019-02-26T10:40:12.563Z,102527.23
2019-02-26T10:42:39.897Z,102530.20
2019-02-26T10:45:06.999Z,102530.93
2019-02-26T10:47:32.749Z,102521.41
2019-02-26T10:49:57.581Z,102534.94
2019-02-26T10:52:23.886Z,102532.28
2019-02-26T10:54:48.274Z,102544.84
2019-02-26T10:57:14.428Z,102540.21
2019-02-26T10:59:41.802Z,102541.56
2019-02-26T11:02:05.125Z,102550.44
2019-02-26T11:04:34.711Z,102549.39
2019-02-26T11:06:55.704Z,102542.86
2019-02-26T11:09:25.417Z,102538.78
2019-02-26T11:11:46.354Z,102545.75
2019-02-26T11:14:13.510Z,102554.14
2019-02-26T11:16:39.045Z,102550.42
2019-02-26T11:19:04.360Z,102555.28
2019-02-26T11:21:29.276Z,102553.95
2019-02-26T11:23:53.685Z,102553.81
2019-02-26T11:26:18.890Z,102549.30
2019-02-26T11:28:45.396Z,102546.53
2019-02-26T11:31:12.195Z,102542.25
2019-02-26T11:33:35.776Z,102544.71
2019-02-26T11:36:00.195Z,102533.78
2019-02-26T11:38:24.640Z,102542.50
2019-02-26T11:40:49.079Z,102529.83
2019-02-26T11:43:14.997Z,102536.39
2019-02-26T11:45:41.807Z,102528.75
2019-02-26T11:48:08.522Z,102524.77
2019-02-26T11:50:32.228Z,102516.76
2019-02-26T11:52:56.937Z,102512.23
2019-02-26T11:55:23.549Z,102512.45
2019-02-26T11:57:49.735Z,102508.95
2019-02-26T12:00:36.323Z,102506.15
2019-02-26T12:02:58.509Z,102507.49
2019-02-26T12:05:27.157Z,102502.23
2019-02-26T12:07:51.333Z,102497.78
2019-02-26T12:10:15.436Z,102499.42
2019-02-26T12:12:39.963Z,102499.65
2019-02-26T12:15:09.588Z,102500.02
2019-02-26T12:17:35.175Z,102507.17
2019-02-26T12:20:00.400Z,102512.03
2019-02-26T12:22:27.320Z,102497.83
2019-02-26T12:24:55.816Z,102502.53
2019-02-26T12:27:18.283Z,102492.19
2019-02-26T12:29:45.575Z,102498.02
2019-02-26T12:32:09.863Z,102499.30
2019-02-26T12:34:35.237Z,102498.61
2019-02-26T12:37:02.641Z,102497.72
2019-02-26T12:39:29.238Z,102505.52
2019-02-26T12:41:52.795Z,102494.83
2019-02-26T12:44:17.210Z,102503.80
2019-02-26T12:46:41.841Z,102499.88
2019-02-26T12:49:08.518Z,102499.33
2019-02-26T12:51:35.238Z,102499.14
2019-02-26T12:53:58.517Z,102487.07
2019-02-26T12:56:24.328Z,102484.58
2019-02-26T12:58:52.041Z,102484.63
2019-02-26T13:01:15.267Z,102480.20
2019-02-26T13:03:42.559Z,102474.06
2019-02-26T13:06:08.950Z,102474.42
2019-02-26T13:08:31.998Z,102465.34
2019-02-26T13:10:58.396Z,102465.52
2019-02-26T13:13:22.825Z,102407.40
2019-02-26T13:15:47.324Z,102455.06
2019-02-26T13:18:13.840Z,102447.82
2019-02-26T13:20:38.347Z,102440.83
2019-02-26T13:25:29.101Z,102441.14
2019-02-26T13:27:53.762Z,102441.96
2019-02-26T13:30:24.497Z,102435.78
2019-02-26T13:32:56.331Z,102432.80
2019-02-26T13:35:15.266Z,102429.61
2019-02-26T13:37:41.863Z,102419.27
2019-02-26T13:40:09.090Z,102418.72
2019-02-26T13:42:33.587Z,102406.98
2019-02-26T13:44:58.040Z,102401.90
2019-02-26T13:47:22.529Z,102388.73
2019-02-26T13:49:46.966Z,102390.71
2019-02-26T13:52:11.376Z,102389.13
2019-02-26T13:54:35.846Z,102381.59
2019-02-26T13:57:00.313Z,102381.91
2019-02-26T13:59:24.814Z,102382.42
2019-02-26T14:01:49.491Z,102383.55
2019-02-26T14:04:13.865Z,102381.63
2019-02-26T14:06:38.291Z,102375.80
2019-02-26T14:09:02.731Z,102363.72
2019-02-26T14:11:27.171Z,102366.75
2019-02-26T14:13:51.705Z,102366.23
2019-02-26T14:16:16.472Z,102376.70
2019-02-26T14:18:41.038Z,102370.31
2019-02-26T14:21:05.491Z,102359.42
2019-02-26T14:23:35.011Z,102362.47
2019-02-26T14:25:56.022Z,102357.33
2019-02-26T14:28:20.452Z,102360.92
2019-02-26T14:30:44.951Z,102353.39
2019-02-26T14:33:09.451Z,102360.25
2019-02-26T14:35:33.874Z,102363.50
2019-02-26T14:37:58.704Z,102353.34
2019-02-26T14:40:23.217Z,102350.61
2019-02-26T14:42:47.716Z,102344.55
2019-02-26T14:45:17.045Z,102345.41
2019-02-26T14:47:41.652Z,102352.23
2019-02-26T14:50:12.044Z,102336.86
2019-02-26T14:52:36.689Z,102337.42
2019-02-26T14:55:01.189Z,102336.44
2019-02-26T14:57:25.629Z,102334.61
2019-02-26T14:59:50.798Z,102330.59
2019-02-26T15:02:15.353Z,102329.66
2019-02-26T15:04:39.753Z,102327.59
2019-02-26T15:07:04.231Z,102325.09
2019-02-26T15:09:28.950Z,102316.61
2019-02-26T15:11:53.508Z,102315.50
2019-02-26T15:14:17.970Z,102314.27
2019-02-26T15:16:42.449Z,102313.81
2019-02-26T15:19:06.950Z,102313.76
2019-02-26T15:21:31.523Z,102314.91
2019-02-26T15:23:55.959Z,102312.34
2019-02-26T15:26:20.646Z,102308.66
2019-02-26T15:28:45.076Z,102297.87
2019-02-26T15:31:09.499Z,102295.47
2019-02-26T15:33:34.061Z,102314.09
2019-02-26T15:35:58.669Z,102312.63
2019-02-26T15:38:23.117Z,102315.20
2019-02-26T15:40:48.358Z,102311.11
2019-02-26T15:43:13.214Z,102322.88
2019-02-26T15:45:37.618Z,102324.52
2019-02-26T15:48:04.027Z,102322.02
2019-02-26T15:50:28.249Z,102336.31
2019-02-26T15:52:53.648Z,102330.60
2019-02-26T15:55:21.010Z,102332.25
2019-02-26T15:57:45.558Z,102326.69
2019-02-26T16:00:24.409Z,102326.55
2019-02-26T16:02:50.030Z,102327.98
2019-02-26T16:05:14.554Z,102328.54
2019-02-26T16:07:38.996Z,102321.45
2019-02-26T16:10:03.805Z,102324.11
2019-02-26T16:12:28.235Z,102329.13
2019-02-26T16:14:52.731Z,102318.83
2019-02-26T16:17:17.303Z,102321.12
2019-02-26T16:19:43.604Z,102321.12
2019-02-26T16:22:08.363Z,102327.73
2019-02-26T16:24:32.948Z,102325.69
2019-02-26T16:26:57.396Z,102330.56
2019-02-26T16:29:21.814Z,102334.16
2019-02-26T16:31:46.256Z,102332.38
2019-02-26T16:34:11.445Z,102335.50
2019-02-26T16:36:35.938Z,102337.48
2019-02-26T16:39:00.371Z,102334.01
2019-02-26T16:41:24.817Z,102335.31
2019-02-26T16:43:51.685Z,102316.09
2019-02-26T16:46:15.602Z,102345.91
2019-02-26T16:48:40.446Z,102349.67
2019-02-26T16:51:04.961Z,102354.89
2019-02-26T16:53:29.362Z,102356.30
2019-02-26T16:55:53.814Z,102360.53
2019-02-26T16:58:18.239Z,102367.58
2019-02-26T17:00:43.083Z,102369.95
2019-02-26T17:03:07.689Z,102375.37
2019-02-26T17:05:32.175Z,102374.45
2019-02-26T17:07:56.602Z,102376.78
2019-02-26T17:10:29.086Z,102387.17
2019-02-26T17:13:01.815Z,102387.78
2019-02-26T17:15:31.370Z,102388.28
2019-02-26T17:17:55.855Z,102383.80
2019-02-26T17:20:22.470Z,102381.08
2019-02-26T17:22:46.827Z,102385.05
2019-02-26T17:25:11.370Z,102382.10
2019-02-26T17:27:36.547Z,102387.58
2019-02-26T17:30:01.907Z,102392.69
2019-02-26T17:32:26.332Z,102381.99
2019-02-26T17:34:50.747Z,102374.24
2019-02-26T17:37:15.451Z,102376.03
2019-02-26T17:39:39.857Z,102381.63
2019-02-26T17:42:04.430Z,102382.36
2019-02-26T17:44:28.910Z,102384.48
2019-02-26T17:46:53.313Z,102369.31
2019-02-26T17:49:18.071Z,102377.98
2019-02-26T17:51:42.433Z,102388.52
2019-02-26T17:54:06.865Z,102387.32
2019-02-26T17:56:31.520Z,102389.36
2019-02-26T17:58:56.014Z,102386.30
2019-02-26T18:01:20.446Z,102385.36
2019-02-26T18:03:45.473Z,102394.95
2019-02-26T18:06:10.754Z,102397.22
2019-02-26T18:08:35.387Z,102390.88
2019-02-26T18:10:59.825Z,102397.88
2019-02-26T18:13:24.292Z,102394.27
2019-02-26T18:15:48.727Z,102396.34
2019-02-26T18:18:13.233Z,102394.87
2019-02-26T18:20:37.733Z,102398.56
2019-02-26T18:23:02.215Z,102387.23
2019-02-26T18:25:26.711Z,102389.41
2019-02-26T18:27:51.278Z,102385.90
2019-02-26T18:30:23.424Z,102383.88
2019-02-26T18:32:50.500Z,102386.02
2019-02-26T18:35:14.375Z,102385.52
2019-02-26T18:37:46.165Z,102384.53
2019-02-26T18:40:07.944Z,102384.64
2019-02-26T18:42:32.458Z,102383.02
2019-02-26T18:44:56.920Z,102380.62
2019-02-26T18:47:21.499Z,102385.63
2019-02-26T18:49:45.960Z,102388.27
2019-02-26T18:52:10.402Z,102382.44
2019-02-26T18:54:34.851Z,102384.00
2019-02-26T18:56:59.485Z,102379.70
2019-02-26T18:59:24.009Z,102379.84
2019-02-26T19:01:48.527Z,102382.66
2019-02-26T19:04:13.971Z,102375.32
2019-02-26T19:06:39.247Z,102379.45
2019-02-26T19:09:04.715Z,102382.02
2019-02-26T19:11:29.179Z,102374.44
2019-02-26T19:13:53.601Z,102376.48
2019-02-26T19:16:20.439Z,102375.27
2019-02-26T19:18:44.171Z,102374.53
2019-02-26T19:21:08.633Z,102370.70
2019-02-26T19:23:33.141Z,102367.12
2019-02-26T19:25:57.598Z,102377.75
2019-02-26T19:28:25.609Z,102374.19
2019-02-26T19:30:48.332Z,102373.63
2019-02-26T19:33:12.749Z,102369.48
2019-02-26T19:35:40.376Z,102369.26
2019-02-26T19:38:04.896Z,102370.70
2019-02-26T19:40:44.491Z,102365.28
2019-02-26T19:43:08.974Z,102367.41
2019-02-26T19:45:33.595Z,102365.02
2019-02-26T19:47:57.995Z,102361.01
2019-02-26T19:50:22.442Z,102360.80
2019-02-26T19:52:46.891Z,102359.96
2019-02-26T19:55:16.867Z,102358.81
2019-02-26T19:57:41.320Z,102360.06
2019-02-26T20:00:08.792Z,102357.25
2019-02-26T20:02:33.240Z,102358.16
2019-02-26T20:04:57.814Z,102349.65
2019-02-26T20:07:22.258Z,102354.39
2019-02-26T20:09:46.762Z,102357.61
2019-02-26T20:12:11.294Z,102346.07
2019-02-26T20:14:35.736Z,102346.23
2019-02-26T20:17:04.966Z,102348.63
2019-02-26T20:19:26.312Z,102344.45
2019-02-26T20:21:51.739Z,102338.92
2019-02-26T20:24:17.126Z,102349.02
2019-02-26T20:26:41.652Z,102344.46
2019-02-26T20:29:07.882Z,102343.88
2019-02-26T20:31:32.277Z,102342.70
2019-02-26T20:33:56.708Z,102335.91
2019-02-26T20:36:21.144Z,102345.47
2019-02-26T20:38:45.579Z,102337.14
2019-02-26T20:41:10.185Z,102342.52
2019-02-26T20:43:36.925Z,102345.09
2019-02-26T20:46:00.880Z,102341.31
2019-02-26T20:48:25.402Z,102342.30
2019-02-26T20:50:53.518Z,102338.13
2019-02-26T20:53:15.978Z,102343.86
2019-02-26T20:55:40.396Z,102336.92
2019-02-26T20:58:04.951Z,102347.43
2019-02-26T21:00:29.455Z,102343.61
2019-02-26T21:02:54.049Z,102345.25
2019-02-26T21:05:18.665Z,102347.89
2019-02-26T21:07:43.122Z,102343.33
2019-02-26T21:10:15.082Z,102338.97
2019-02-26T21:12:37.004Z,102336.31
2019-02-26T21:15:01.510Z,102343.62
2019-02-26T21:17:26.320Z,102341.67
2019-02-26T21:19:50.949Z,102341.70
2019-02-26T21:22:15.452Z,102341.03
2019-02-26T21:24:39.971Z,102340.23
2019-02-26T21:27:04.476Z,102337.19
2019-02-26T21:29:29.027Z,102336.31
2019-02-26T21:31:53.446Z,102329.91
2019-02-26T21:34:18.013Z,102332.88
2019-02-26T21:36:42.446Z,102335.76
2019-02-26T21:39:10.920Z,102327.03
2019-02-26T21:41:33.517Z,102331.89
2019-02-26T21:43:57.972Z,102324.47
2019-02-26T21:46:23.225Z,102324.38
2019-02-26T21:48:47.893Z,102324.84
2019-02-26T21:51:12.445Z,102325.13
2019-02-26T21:53:36.892Z,102321.03
2019-02-26T21:56:01.322Z,102319.74
2019-02-26T21:58:26.827Z,102322.33
2019-02-26T22:00:54.429Z,102322.75
2019-02-26T22:03:18.857Z,102319.08
2019-02-26T22:05:43.307Z,102317.74
2019-02-26T22:08:07.793Z,102318.89
2019-02-26T22:10:32.243Z,102313.22
2019-02-26T22:12:57.297Z,102312.14
2019-02-26T22:15:21.817Z,102316.91
2019-02-26T22:17:46.314Z,102318.73
2019-02-26T22:20:22.121Z,102314.10
2019-02-26T22:22:39.749Z,102318.95
2019-02-26T22:25:09.613Z,102318.48
2019-02-26T22:27:31.036Z,102317.38
2019-02-26T22:29:55.514Z,102323.24
2019-02-26T22:32:20.041Z,102312.41
2019-02-26T22:34:44.487Z,102326.88
2019-02-26T22:37:08.978Z,102324.55
2019-02-26T22:39:33.474Z,102319.71
2019-02-26T22:41:57.907Z,102315.19
2019-02-26T22:44:22.405Z,102323.67
2019-02-26T22:46:46.838Z,102316.92
2019-02-26T22:49:11.252Z,102315.48
2019-02-26T22:51:35.695Z,102312.55
2019-02-26T22:54:00.174Z,102314.54
2019-02-26T22:56:24.793Z,102312.87
2019-02-26T22:58:49.232Z,102302.20
2019-02-26T23:01:30.101Z,102302.68
2019-02-26T23:03:47.024Z,102304.17
2019-02-26T23:06:11.608Z,102299.97
2019-02-26T23:08:36.173Z,102297.69
2019-02-26T23:11:00.840Z,102300.64
2019-02-26T23:13:25.414Z,102301.06
2019-02-26T23:15:50.206Z,102303.02
2019-02-26T23:18:15.704Z,102300.61
2019-02-26T23:20:42.496Z,102296.46
2019-02-26T23:23:06.518Z,102292.95
2019-02-26T23:25:33.652Z,102300.92
2019-02-26T23:27:57.715Z,102303.88
2019-02-26T23:30:24.956Z,102297.19
2019-02-26T23:32:48.583Z,102292.55
2019-02-26T23:35:14.446Z,102296.84
2019-02-26T23:37:38.959Z,102294.48
2019-02-26T23:40:04.625Z,102296.86
2019-02-26T23:42:29.140Z,102303.66
2019-02-26T23:44:53.632Z,102294.41
2019-02-26T23:47:18.048Z,102293.14
2019-02-26T23:49:44.902Z,102293.06
2019-02-26T23:52:08.691Z,102297.16
2019-02-26T23:54:33.113Z,102297.54
2019-02-26T23:56:57.541Z,102291.22
2019-02-26T23:59:21.993Z,102292.09
